createdAt,value
2023-04-22T00:00:18.202Z,95477.59
2023-04-22T00:01:24.726Z,95471.69
2023-04-22T00:02:27.343Z,95471.84
2023-04-22T00:03:33.182Z,95472.03
2023-04-22T00:04:38.137Z,95470.38
2023-04-22T00:05:45.061Z,95475.53
2023-04-22T00:06:47.343Z,95471.47
2023-04-22T00:07:52.149Z,95468.03
2023-04-22T00:08:54.214Z,95475.91
2023-04-22T00:09:58.954Z,95468.13
2023-04-22T00:11:01.269Z,95468.41
2023-04-22T00:12:06.054Z,95467.72
2023-04-22T00:13:08.415Z,95473.91
2023-04-22T00:14:13.112Z,95466.97
2023-04-22T00:15:15.224Z,95472.97
2023-04-22T00:16:20.117Z,95469.56
2023-04-22T00:17:22.402Z,95472.13
2023-04-22T00:18:27.565Z,95469.56
2023-04-22T00:19:30.140Z,95473.06
2023-04-22T00:20:37.738Z,95468.91
2023-04-22T00:21:39.829Z,95462.91
2023-04-22T00:22:44.493Z,95469.84
2023-04-22T00:24:04.733Z,95465.75
2023-04-22T00:25:08.209Z,95478.88
2023-04-22T00:26:12.843Z,95477.03
2023-04-22T00:27:14.876Z,95467.31
2023-04-22T00:28:19.678Z,95463.91
2023-04-22T00:29:21.877Z,95472.56
2023-04-22T00:30:26.538Z,95460.66
2023-04-22T00:31:28.862Z,95467.56
2023-04-22T00:32:33.695Z,95460.56
2023-04-22T00:33:36.499Z,95462.06
2023-04-22T00:34:41.228Z,95461.22
2023-04-22T00:35:46.909Z,95463.25
2023-04-22T00:36:51.668Z,95463.41
2023-04-22T00:37:53.813Z,95462.56
2023-04-22T00:38:58.540Z,95465.28
2023-04-22T00:40:00.734Z,95463.59
2023-04-22T00:41:05.856Z,95465.28
2023-04-22T00:42:08.058Z,95455.75
2023-04-22T00:43:13.321Z,95456.75
2023-04-22T00:44:15.414Z,95460.28
2023-04-22T00:45:21.187Z,95462.00
2023-04-22T00:46:24.247Z,95465.53
2023-04-22T00:47:29.452Z,95467.28
2023-04-22T00:48:32.124Z,95463.94
2023-04-22T00:49:45.429Z,95457.09
2023-04-22T00:50:50.151Z,95453.75
2023-04-22T00:51:54.833Z,95462.47
2023-04-22T00:52:57.064Z,95457.28
2023-04-22T00:54:02.140Z,95452.09
2023-04-22T00:55:05.133Z,95460.41
2023-04-22T00:56:10.760Z,95462.19
2023-04-22T00:57:12.947Z,95457.81
2023-04-22T00:58:17.866Z,95458.75
2023-04-22T00:59:21.708Z,95457.09
2023-04-22T01:00:27.892Z,95453.75
2023-04-22T01:01:30.786Z,95458.94
2023-04-22T01:02:36.078Z,95459.00
2023-04-22T01:03:41.032Z,95461.59
2023-04-22T01:04:46.697Z,95459.88
2023-04-22T01:05:51.682Z,95465.13
2023-04-22T01:06:56.500Z,95462.63
2023-04-22T01:07:58.902Z,95457.53
2023-04-22T01:09:03.670Z,95470.00
2023-04-22T01:10:07.118Z,95465.00
2023-04-22T01:11:11.878Z,95465.06
2023-04-22T01:12:14.079Z,95468.66
2023-04-22T01:13:18.768Z,95476.41
2023-04-22T01:14:20.880Z,95475.75
2023-04-22T01:15:26.037Z,95468.06
2023-04-22T01:16:29.089Z,95466.31
2023-04-22T01:17:34.707Z,95467.19
2023-04-22T01:18:37.691Z,95464.75
2023-04-22T01:19:43.615Z,95469.00
2023-04-22T01:20:45.969Z,95466.41
2023-04-22T01:21:54.140Z,95466.59
2023-04-22T01:22:57.704Z,95464.00
2023-04-22T01:24:05.336Z,95468.44
2023-04-22T01:25:08.760Z,95473.59
2023-04-22T01:26:13.603Z,95467.50
2023-04-22T01:27:16.097Z,95467.59
2023-04-22T01:28:20.813Z,95468.53
2023-04-22T01:29:23.164Z,95468.59
2023-04-22T01:30:28.036Z,95466.94
2023-04-22T01:31:30.393Z,95468.66
2023-04-22T01:32:36.436Z,95466.19
2023-04-22T01:33:38.999Z,95473.84
2023-04-22T01:34:43.963Z,95467.84
2023-04-22T01:35:46.413Z,95472.28
2023-04-22T01:36:51.629Z,95463.66
2023-04-22T01:37:53.865Z,95467.25
2023-04-22T01:38:59.200Z,95469.00
2023-04-22T01:40:04.944Z,95470.53
2023-04-22T01:41:10.609Z,95461.00
2023-04-22T01:42:12.935Z,95462.50
2023-04-22T01:43:17.730Z,95467.75
2023-04-22T01:44:20.309Z,95474.69
2023-04-22T01:45:25.011Z,95465.25
2023-04-22T01:46:27.328Z,95465.25
2023-04-22T01:47:32.290Z,95466.19
2023-04-22T01:48:35.446Z,95476.53
2023-04-22T01:49:40.516Z,95465.53
2023-04-22T01:50:42.759Z,95474.94
2023-04-22T01:51:47.502Z,95473.13
2023-04-22T01:52:49.708Z,95470.59
2023-04-22T01:53:54.666Z,95472.44
2023-04-22T01:54:58.510Z,95469.84
2023-04-22T01:56:06.144Z,95480.03
2023-04-22T01:57:11.058Z,95467.13
2023-04-22T01:58:15.869Z,95475.69
2023-04-22T01:59:18.024Z,95473.00
2023-04-22T02:00:23.610Z,95470.44
2023-04-22T02:01:25.710Z,95469.53
2023-04-22T02:02:30.577Z,95472.00
2023-04-22T02:03:32.792Z,95478.88
2023-04-22T02:04:37.594Z,95470.19
2023-04-22T02:05:40.032Z,95474.34
2023-04-22T02:06:44.743Z,95476.94
2023-04-22T02:07:46.860Z,95476.00
2023-04-22T02:08:51.536Z,95474.34
2023-04-22T02:09:53.880Z,95472.53
2023-04-22T02:10:58.648Z,95471.50
2023-04-22T02:12:03.401Z,95474.06
2023-04-22T02:13:08.054Z,95467.19
2023-04-22T02:14:10.472Z,95470.66
2023-04-22T02:15:15.656Z,95469.75
2023-04-22T02:16:17.950Z,95470.50
2023-04-22T02:17:22.613Z,95470.31
2023-04-22T02:18:24.679Z,95472.00
2023-04-22T02:19:29.500Z,95473.66
2023-04-22T02:20:31.752Z,95473.66
2023-04-22T02:21:36.707Z,95470.16
2023-04-22T02:22:39.574Z,95475.06
2023-04-22T02:23:44.368Z,95479.34
2023-04-22T02:24:46.869Z,95474.00
2023-04-22T02:25:52.851Z,95483.47
2023-04-22T02:26:54.956Z,95480.00
2023-04-22T02:28:02.236Z,95484.25
2023-04-22T02:29:04.276Z,95476.28
2023-04-22T02:30:10.703Z,95476.28
2023-04-22T02:31:12.851Z,95484.88
2023-04-22T02:32:17.653Z,95476.22
2023-04-22T02:33:19.762Z,95480.97
2023-04-22T02:34:24.419Z,95477.63
2023-04-22T02:35:26.484Z,95472.47
2023-04-22T02:36:32.128Z,95474.13
2023-04-22T02:37:34.383Z,95468.94
2023-04-22T02:38:41.988Z,95471.28
2023-04-22T02:39:44.096Z,95471.34
2023-04-22T02:40:48.770Z,95473.75
2023-04-22T02:41:50.840Z,95476.44
2023-04-22T02:42:55.804Z,95468.88
2023-04-22T02:44:00.506Z,95475.63
2023-04-22T02:45:05.282Z,95474.88
2023-04-22T02:46:07.664Z,95473.94
2023-04-22T02:47:12.507Z,95474.88
2023-04-22T02:48:14.580Z,95477.47
2023-04-22T02:49:19.281Z,95477.47
2023-04-22T02:50:21.639Z,95473.22
2023-04-22T02:51:26.856Z,95468.09
2023-04-22T02:52:29.066Z,95469.88
2023-04-22T02:53:33.937Z,95472.47
2023-04-22T02:54:36.074Z,95471.63
2023-04-22T02:55:43.959Z,95469.94
2023-04-22T02:56:46.445Z,95475.13
2023-04-22T02:57:51.107Z,95468.28
2023-04-22T02:58:53.205Z,95475.94
2023-04-22T03:00:04.065Z,95473.34
2023-04-22T03:01:06.466Z,95477.81
2023-04-22T03:02:11.645Z,95465.78
2023-04-22T03:03:13.928Z,95473.34
2023-04-22T03:04:22.215Z,95473.94
2023-04-22T03:05:25.208Z,95472.22
2023-04-22T03:06:29.902Z,95477.63
2023-04-22T03:07:32.267Z,95478.88
2023-04-22T03:08:36.978Z,95474.00
2023-04-22T03:09:39.222Z,95481.81
2023-04-22T03:10:44.130Z,95479.34
2023-04-22T03:11:46.463Z,95480.25
2023-04-22T03:12:51.192Z,95481.06
2023-04-22T03:13:56.452Z,95490.69
2023-04-22T03:15:03.765Z,95484.00
2023-04-22T03:16:06.587Z,95478.19
2023-04-22T03:17:11.263Z,95483.41
2023-04-22T03:18:13.410Z,95482.69
2023-04-22T03:19:18.080Z,95480.00
2023-04-22T03:20:20.641Z,95487.53
2023-04-22T03:21:25.370Z,95482.94
2023-04-22T03:22:27.530Z,95485.16
2023-04-22T03:23:32.238Z,95485.00
2023-04-22T03:24:34.478Z,95485.06
2023-04-22T03:25:39.425Z,95481.47
2023-04-22T03:26:41.507Z,95488.34
2023-04-22T03:27:46.181Z,95488.34
2023-04-22T03:28:48.309Z,95488.50
2023-04-22T03:29:52.962Z,95488.50
2023-04-22T03:30:57.582Z,95487.81
2023-04-22T03:32:02.360Z,95488.66
2023-04-22T03:33:04.579Z,95478.72
2023-04-22T03:34:09.209Z,95478.94
2023-04-22T03:35:11.591Z,95479.88
2023-04-22T03:36:16.249Z,95484.63
2023-04-22T03:37:18.312Z,95485.25
2023-04-22T03:38:22.981Z,95477.69
2023-04-22T03:39:25.129Z,95480.56
2023-04-22T03:40:29.834Z,95480.16
2023-04-22T03:41:31.947Z,95469.09
2023-04-22T03:42:36.772Z,95470.75
2023-04-22T03:43:38.821Z,95476.88
2023-04-22T03:44:43.513Z,95473.16
2023-04-22T03:45:46.028Z,95475.69
2023-04-22T03:46:53.334Z,95476.56
2023-04-22T03:47:56.023Z,95475.00
2023-04-22T03:49:00.736Z,95473.53
2023-04-22T03:50:03.004Z,95483.25
2023-04-22T03:51:07.932Z,95478.88
2023-04-22T03:52:10.063Z,95480.72
2023-04-22T03:53:14.725Z,95479.97
2023-04-22T03:54:16.789Z,95473.53
2023-04-22T03:55:21.495Z,95475.19
2023-04-22T03:56:24.733Z,95475.94
2023-04-22T03:57:29.403Z,95473.34
2023-04-22T03:58:31.762Z,95475.19
2023-04-22T03:59:36.589Z,95483.88
2023-04-22T04:00:38.692Z,95475.28
2023-04-22T04:01:43.348Z,95481.47
2023-04-22T04:02:48.148Z,95476.47
2023-04-22T04:03:53.195Z,95482.56
2023-04-22T04:04:55.672Z,95485.06
2023-04-22T04:06:00.787Z,95488.84
2023-04-22T04:07:03.357Z,95486.44
2023-04-22T04:08:08.217Z,95487.59
2023-04-22T04:09:11.166Z,95488.59
2023-04-22T04:10:15.853Z,95491.38
2023-04-22T04:11:17.960Z,95491.38
2023-04-22T04:12:22.651Z,95482.28
2023-04-22T04:13:24.880Z,95485.16
2023-04-22T04:14:29.757Z,95481.88
2023-04-22T04:15:32.854Z,95484.75
2023-04-22T04:16:37.695Z,95483.34
2023-04-22T04:17:39.960Z,95476.59
2023-04-22T04:18:47.273Z,95484.53
2023-04-22T04:19:49.391Z,95478.66
2023-04-22T04:20:54.094Z,95480.66
2023-04-22T04:21:57.222Z,95483.34
2023-04-22T04:23:01.885Z,95479.19
2023-04-22T04:24:04.453Z,95479.09
2023-04-22T04:25:21.735Z,95482.69
2023-04-22T04:26:24.122Z,95479.34
2023-04-22T04:27:28.776Z,95487.13
2023-04-22T04:28:33.272Z,95480.13
2023-04-22T04:29:38.263Z,95481.13
2023-04-22T04:30:41.882Z,95481.84
2023-04-22T04:31:46.618Z,95486.19
2023-04-22T04:32:51.404Z,95477.69
2023-04-22T04:33:57.468Z,95486.34
2023-04-22T04:35:02.360Z,95482.88
2023-04-22T04:36:05.063Z,95480.34
2023-04-22T04:37:09.831Z,95476.94
2023-04-22T04:38:12.961Z,95473.69
2023-04-22T04:39:19.169Z,95476.53
2023-04-22T04:40:22.187Z,95476.69
2023-04-22T04:41:28.379Z,95475.78
2023-04-22T04:42:31.184Z,95475.00
2023-04-22T04:43:36.005Z,95470.00
2023-04-22T04:44:38.399Z,95471.88
2023-04-22T04:45:48.303Z,95472.53
2023-04-22T04:46:52.164Z,95472.75
2023-04-22T04:47:57.023Z,95471.28
2023-04-22T04:49:05.232Z,95468.09
2023-04-22T04:50:08.685Z,95468.19
2023-04-22T04:51:13.399Z,95475.88
2023-04-22T04:52:15.476Z,95477.53
2023-04-22T04:53:20.202Z,95470.69
2023-04-22T04:54:22.310Z,95474.22
2023-04-22T04:55:27.067Z,95474.34
2023-04-22T04:56:29.278Z,95468.34
2023-04-22T04:57:33.934Z,95466.69
2023-04-22T04:58:36.119Z,95465.88
2023-04-22T04:59:41.101Z,95465.88
2023-04-22T05:00:43.571Z,95467.53
2023-04-22T05:01:48.375Z,95461.34
2023-04-22T05:02:50.566Z,95468.09
2023-04-22T05:03:55.479Z,95465.34
2023-04-22T05:05:00.505Z,95467.00
2023-04-22T05:06:07.137Z,95460.19
2023-04-22T05:07:09.334Z,95466.28
2023-04-22T05:08:14.031Z,95470.53
2023-04-22T05:09:17.120Z,95465.34
2023-04-22T05:10:21.924Z,95468.59
2023-04-22T05:11:24.041Z,95471.88
2023-04-22T05:12:28.796Z,95473.53
2023-04-22T05:13:31.439Z,95474.28
2023-04-22T05:14:36.109Z,95470.69
2023-04-22T05:15:38.331Z,95480.03
2023-04-22T05:16:43.401Z,95476.34
2023-04-22T05:17:45.576Z,95471.84
2023-04-22T05:18:50.395Z,95477.69
2023-04-22T05:19:52.557Z,95474.00
2023-04-22T05:21:00.311Z,95483.41
2023-04-22T05:22:02.534Z,95484.94
2023-04-22T05:23:07.300Z,95482.19
2023-04-22T05:24:09.408Z,95476.75
2023-04-22T05:25:14.093Z,95479.88
2023-04-22T05:26:17.519Z,95483.00
2023-04-22T05:27:22.266Z,95481.06
2023-04-22T05:28:24.534Z,95476.44
2023-04-22T05:29:29.246Z,95479.69
2023-04-22T05:30:31.485Z,95486.38
2023-04-22T05:31:36.209Z,95486.19
2023-04-22T05:32:38.487Z,95486.91
2023-04-22T05:33:43.355Z,95480.72
2023-04-22T05:34:45.717Z,95480.50
2023-04-22T05:35:59.492Z,95479.56
2023-04-22T05:37:03.005Z,95485.44
2023-04-22T05:38:07.963Z,95484.44
2023-04-22T05:39:13.125Z,95483.38
2023-04-22T05:40:15.235Z,95484.13
2023-04-22T05:41:19.879Z,95489.25
2023-04-22T05:42:21.956Z,95486.56
2023-04-22T05:43:26.638Z,95484.06
2023-04-22T05:44:28.786Z,95477.88
2023-04-22T05:45:33.540Z,95476.88
2023-04-22T05:46:35.700Z,95484.44
2023-04-22T05:47:40.743Z,95479.81
2023-04-22T05:48:42.832Z,95476.97
2023-04-22T05:49:47.580Z,95479.47
2023-04-22T05:50:49.718Z,95475.75
2023-04-22T05:51:57.023Z,95477.28
2023-04-22T05:53:01.774Z,95477.72
2023-04-22T05:54:04.088Z,95477.47
2023-04-22T05:55:10.347Z,95478.75
2023-04-22T05:56:12.417Z,95474.13
2023-04-22T05:57:17.144Z,95474.69
2023-04-22T05:58:19.265Z,95476.91
2023-04-22T05:59:23.918Z,95466.16
2023-04-22T06:00:26.222Z,95475.22
2023-04-22T06:01:31.026Z,95469.56
2023-04-22T06:02:33.380Z,95473.34
2023-04-22T06:03:38.516Z,95479.00
2023-04-22T06:04:41.548Z,95471.66
2023-04-22T06:05:47.141Z,95478.22
2023-04-22T06:06:50.057Z,95479.69
2023-04-22T06:07:57.355Z,95470.78
2023-04-22T06:08:59.660Z,95476.53
2023-04-22T06:10:05.625Z,95474.56
2023-04-22T06:11:08.162Z,95474.34
2023-04-22T06:12:13.640Z,95472.31
2023-04-22T06:13:15.736Z,95475.44
2023-04-22T06:14:20.418Z,95482.13
2023-04-22T06:15:25.196Z,95485.22
2023-04-22T06:16:27.921Z,95483.19
2023-04-22T06:17:32.678Z,95482.06
2023-04-22T06:18:38.099Z,95487.88
2023-04-22T06:19:43.277Z,95486.75
2023-04-22T06:20:45.395Z,95482.19
2023-04-22T06:21:50.123Z,95492.22
2023-04-22T06:22:57.394Z,95490.16
2023-04-22T06:24:00.123Z,95486.31
2023-04-22T06:25:04.923Z,95492.88
2023-04-22T06:26:07.119Z,95492.47
2023-04-22T06:27:12.057Z,95494.03
2023-04-22T06:28:14.163Z,95487.59
2023-04-22T06:29:18.877Z,95483.84
2023-04-22T06:30:21.441Z,95478.28
2023-04-22T06:31:26.099Z,95488.25
2023-04-22T06:32:28.244Z,95486.88
2023-04-22T06:33:32.934Z,95491.50
2023-04-22T06:34:35.152Z,95482.53
2023-04-22T06:35:40.010Z,95481.28
2023-04-22T06:36:42.330Z,95477.34
2023-04-22T06:37:47.047Z,95482.22
2023-04-22T06:38:51.743Z,95486.91
2023-04-22T06:39:56.520Z,95476.78
2023-04-22T06:41:03.580Z,95478.88
2023-04-22T06:42:08.966Z,95480.00
2023-04-22T06:43:11.038Z,95474.97
2023-04-22T06:44:15.789Z,95477.84
2023-04-22T06:45:18.634Z,95479.81
2023-04-22T06:46:23.349Z,95471.34
2023-04-22T06:47:25.556Z,95478.44
2023-04-22T06:48:30.256Z,95474.81
2023-04-22T06:49:32.398Z,95475.00
2023-04-22T06:50:37.130Z,95478.38
2023-04-22T06:51:39.487Z,95469.97
2023-04-22T06:52:44.576Z,95465.97
2023-04-22T06:54:01.185Z,95462.22
2023-04-22T06:55:03.828Z,95464.84
2023-04-22T06:56:09.426Z,95461.22
2023-04-22T06:57:11.586Z,95457.69
2023-04-22T06:58:16.278Z,95457.47
2023-04-22T06:59:18.360Z,95459.84
2023-04-22T07:00:23.093Z,95456.19
2023-04-22T07:01:25.181Z,95447.50
2023-04-22T07:02:30.018Z,95449.53
2023-04-22T07:03:32.334Z,95448.31
2023-04-22T07:04:39.736Z,95451.81
2023-04-22T07:05:43.825Z,95447.59
2023-04-22T07:06:48.701Z,95448.59
2023-04-22T07:07:50.822Z,95455.91
2023-04-22T07:08:55.578Z,95453.69
2023-04-22T07:10:02.855Z,95453.88
2023-04-22T07:11:07.647Z,95456.59
2023-04-22T07:12:09.790Z,95444.09
2023-04-22T07:13:14.453Z,95448.03
2023-04-22T07:14:19.164Z,95447.53
2023-04-22T07:15:21.373Z,95444.81
2023-04-22T07:16:26.206Z,95457.53
2023-04-22T07:17:28.366Z,95458.41
2023-04-22T07:18:33.074Z,95450.19
2023-04-22T07:19:35.416Z,95461.81
2023-04-22T07:20:40.215Z,95454.38
2023-04-22T07:21:42.457Z,95459.50
2023-04-22T07:22:47.108Z,95457.44
2023-04-22T07:23:49.245Z,95455.66
2023-04-22T07:24:53.922Z,95447.78
2023-04-22T07:26:01.274Z,95445.84
2023-04-22T07:27:03.927Z,95446.00
2023-04-22T07:28:08.617Z,95435.75
2023-04-22T07:29:11.540Z,95453.44
2023-04-22T07:30:17.254Z,95443.38
2023-04-22T07:31:19.362Z,95442.38
2023-04-22T07:32:24.433Z,95424.88
2023-04-22T07:33:26.549Z,95433.97
2023-04-22T07:34:31.237Z,95427.50
2023-04-22T07:35:33.380Z,95422.94
2023-04-22T07:36:38.041Z,95427.66
2023-04-22T07:37:40.185Z,95432.19
2023-04-22T07:38:44.969Z,95434.78
2023-04-22T07:39:47.045Z,95437.81
2023-04-22T07:40:51.778Z,95436.72
2023-04-22T07:41:57.812Z,95431.34
2023-04-22T07:43:02.597Z,95438.78
2023-04-22T07:44:04.798Z,95442.53
2023-04-22T07:45:11.747Z,95438.09
2023-04-22T07:46:13.911Z,95443.63
2023-04-22T07:47:18.603Z,95443.78
2023-04-22T07:48:20.911Z,95435.38
2023-04-22T07:49:25.643Z,95429.41
2023-04-22T07:50:27.812Z,95416.16
2023-04-22T07:51:32.678Z,95425.69
2023-04-22T07:52:35.373Z,95428.88
2023-04-22T07:53:40.025Z,95437.56
2023-04-22T07:54:43.902Z,95432.88
2023-04-22T07:55:50.058Z,95431.63
2023-04-22T07:56:58.967Z,95433.97
2023-04-22T07:58:08.202Z,95424.31
2023-04-22T08:01:05.720Z,95429.41
2023-04-22T08:02:10.026Z,95429.53
2023-04-22T08:03:16.197Z,95422.66
2023-04-22T08:04:18.762Z,95433.16
2023-04-22T08:05:27.489Z,95437.00
2023-04-22T08:06:32.940Z,95424.03
2023-04-22T08:07:38.958Z,95433.91
2023-04-22T08:08:43.953Z,95423.88
2023-04-22T08:09:50.751Z,95413.25
2023-04-22T08:10:55.490Z,95406.41
2023-04-22T08:12:05.678Z,95404.78
2023-04-22T08:13:12.475Z,95404.53
2023-04-22T08:14:19.928Z,95400.28
2023-04-22T08:15:27.214Z,95401.03
2023-04-22T08:16:32.360Z,95406.53
2023-04-22T08:17:39.955Z,95396.16
2023-04-22T08:18:44.667Z,95405.81
2023-04-22T08:19:50.647Z,95385.16
2023-04-22T08:20:57.825Z,95391.44
2023-04-22T08:22:01.741Z,95384.22
2023-04-22T08:23:07.199Z,95367.13
2023-04-22T08:24:11.644Z,95378.28
2023-04-22T08:25:18.393Z,95382.25
2023-04-22T08:26:20.818Z,95370.22
2023-04-22T08:27:32.198Z,95371.41
2023-04-22T08:28:35.264Z,95381.94
2023-04-22T08:29:43.049Z,95397.41
2023-04-22T08:30:46.915Z,95388.16
2023-04-22T08:31:53.390Z,95397.69
2023-04-22T08:32:56.861Z,95386.47
2023-04-22T08:34:04.729Z,95383.78
2023-04-22T08:35:13.144Z,95373.81
2023-04-22T08:36:18.405Z,95367.81
2023-04-22T08:37:26.877Z,95385.16
2023-04-22T08:38:33.010Z,95381.44
2023-04-22T08:39:41.416Z,95383.41
2023-04-22T08:40:47.951Z,95371.16
2023-04-22T08:41:57.675Z,95383.19
2023-04-22T08:43:05.945Z,95385.75
2023-04-22T08:44:13.764Z,95392.94
2023-04-22T08:45:18.690Z,95379.59
2023-04-22T08:46:27.929Z,95379.13
2023-04-22T08:47:35.193Z,95362.19
2023-04-22T08:48:42.742Z,95371.88
2023-04-22T08:49:52.084Z,95371.56
2023-04-22T08:50:55.766Z,95376.16
2023-04-22T08:52:06.570Z,95378.44
2023-04-22T08:53:12.713Z,95371.41
2023-04-22T08:54:21.263Z,95375.84
2023-04-22T08:55:30.982Z,95376.19
2023-04-22T08:56:41.952Z,95363.28
2023-04-22T08:57:49.762Z,95381.41
2023-04-22T08:59:02.359Z,95389.22
2023-04-22T09:00:10.061Z,95374.53
2023-04-22T09:01:19.209Z,95372.19
2023-04-22T09:02:25.876Z,95358.00
2023-04-22T09:03:34.145Z,95355.97
2023-04-22T09:04:39.159Z,95362.53
2023-04-22T09:05:49.429Z,95368.53
2023-04-22T09:06:54.536Z,95352.06
2023-04-22T09:08:03.069Z,95355.09
2023-04-22T09:09:33.801Z,95367.88
2023-04-22T09:10:39.636Z,95374.75
2023-04-22T09:11:47.720Z,95395.72
2023-04-22T09:12:53.249Z,95388.25
2023-04-22T09:14:04.034Z,95388.09
2023-04-22T09:15:11.580Z,95379.72
2023-04-22T09:16:19.441Z,95389.28
2023-04-22T09:17:34.716Z,95383.38
2023-04-22T09:18:47.031Z,95377.78
2023-04-22T09:20:00.416Z,95374.31
2023-04-22T09:21:09.952Z,95378.47
2023-04-22T09:22:17.084Z,95370.63
2023-04-22T09:23:25.755Z,95360.78
2023-04-22T09:24:32.018Z,95367.56
2023-04-22T09:25:41.227Z,95367.16
2023-04-22T09:26:47.811Z,95363.97
2023-04-22T09:27:56.053Z,95356.38
2023-04-22T09:29:03.973Z,95378.81
2023-04-22T09:30:15.903Z,95358.69
2023-04-22T09:31:18.924Z,95370.63
2023-04-22T09:32:29.853Z,95375.69
2023-04-22T09:33:35.150Z,95380.16
2023-04-22T09:34:56.980Z,95378.59
2023-04-22T09:36:04.691Z,95360.94
2023-04-22T09:37:10.962Z,95360.41
2023-04-22T09:38:19.434Z,95360.13
2023-04-22T09:39:25.990Z,95366.63
2023-04-22T09:40:35.057Z,95364.81
2023-04-22T09:41:41.528Z,95360.59
2023-04-22T09:42:54.348Z,95350.50
2023-04-22T09:44:07.300Z,95345.44
2023-04-22T09:45:15.440Z,95359.03
2023-04-22T09:46:21.382Z,95359.53
2023-04-22T09:47:28.770Z,95352.44
2023-04-22T09:48:32.883Z,95368.47
2023-04-22T09:49:42.744Z,95344.63
2023-04-22T09:50:52.462Z,95360.03
2023-04-22T09:51:57.360Z,95361.00
2023-04-22T09:53:04.703Z,95353.34
2023-04-22T09:54:14.224Z,95353.06
2023-04-22T09:55:20.700Z,95341.06
2023-04-22T09:56:41.525Z,95352.75
2023-04-22T09:57:48.172Z,95351.38
2023-04-22T09:58:55.217Z,95342.47
2023-04-22T10:00:04.055Z,95326.00
2023-04-22T10:01:10.758Z,95306.91
2023-04-22T10:02:15.647Z,95317.69
2023-04-22T10:03:21.129Z,95310.78
2023-04-22T10:04:25.683Z,95321.13
2023-04-22T10:05:30.367Z,95322.03
2023-04-22T10:06:32.590Z,95314.97
2023-04-22T10:07:37.587Z,95308.75
2023-04-22T10:08:42.445Z,95311.72
2023-04-22T10:09:47.643Z,95300.41
2023-04-22T10:10:49.760Z,95304.41
2023-04-22T10:11:58.256Z,95321.03
2023-04-22T10:13:00.709Z,95309.09
2023-04-22T10:14:05.608Z,95291.97
2023-04-22T10:15:08.941Z,95298.53
2023-04-22T10:16:19.508Z,95295.72
2023-04-22T10:17:27.133Z,95286.22
2023-04-22T10:18:32.544Z,95295.69
2023-04-22T10:19:42.125Z,95281.16
2023-04-22T10:20:51.976Z,95282.78
2023-04-22T10:21:57.671Z,95280.84
2023-04-22T10:23:07.827Z,95297.22
2023-04-22T10:26:09.246Z,95279.19
2023-04-22T10:27:13.610Z,95304.31
2023-04-22T10:28:20.675Z,95291.41
2023-04-22T10:29:24.206Z,95275.06
2023-04-22T10:30:37.369Z,95315.09
2023-04-22T10:31:44.816Z,95299.44
2023-04-22T10:32:51.616Z,95311.38
2023-04-22T10:34:11.867Z,95283.88
2023-04-22T10:35:20.483Z,95269.25
2023-04-22T10:36:25.220Z,95295.47
2023-04-22T10:37:33.658Z,95275.44
2023-04-22T10:38:38.649Z,95285.09
2023-04-22T10:39:46.963Z,95281.84
2023-04-22T10:41:01.463Z,95295.91
2023-04-22T10:42:16.360Z,95271.69
2023-04-22T10:43:22.022Z,95285.28
2023-04-22T10:44:34.157Z,95292.59
2023-04-22T10:45:37.635Z,95291.47
2023-04-22T10:47:09.133Z,95279.25
2023-04-22T10:48:17.308Z,95288.38
2023-04-22T10:49:22.101Z,95291.59
2023-04-22T10:50:30.594Z,95274.44
2023-04-22T10:51:40.850Z,95273.25
2023-04-22T10:52:51.452Z,95279.56
2023-04-22T10:53:55.067Z,95281.25
2023-04-22T10:55:03.952Z,95261.47
2023-04-22T10:56:22.682Z,95249.69
2023-04-22T10:57:36.019Z,95255.16
2023-04-22T10:58:40.720Z,95263.44
2023-04-22T10:59:48.797Z,95234.97
2023-04-22T11:01:00.290Z,95250.09
2023-04-22T11:02:06.749Z,95215.94
2023-04-22T11:03:16.622Z,95226.41
2023-04-22T11:04:23.632Z,95222.19
2023-04-22T11:05:30.543Z,95234.50
2023-04-22T11:06:35.225Z,95233.75
2023-04-22T11:07:37.395Z,95234.78
2023-04-22T11:08:48.415Z,95237.31
2023-04-22T11:09:52.305Z,95237.69
2023-04-22T11:11:11.825Z,95232.44
2023-04-22T11:12:45.018Z,95207.44
2023-04-22T11:13:52.106Z,95229.94
2023-04-22T11:14:56.298Z,95211.75
2023-04-22T11:16:01.502Z,95232.84
2023-04-22T11:17:07.871Z,95209.84
2023-04-22T11:18:16.767Z,95220.69
2023-04-22T11:19:22.487Z,95218.59
2023-04-22T11:20:24.781Z,95238.41
2023-04-22T11:21:30.060Z,95231.88
2023-04-22T11:22:36.284Z,95232.53
2023-04-22T11:23:41.074Z,95222.59
2023-04-22T11:24:56.165Z,95209.13
2023-04-22T11:26:04.476Z,95190.94
2023-04-22T11:27:08.613Z,95208.66
2023-04-22T11:28:15.579Z,95195.59
2023-04-22T11:29:19.277Z,95216.13
2023-04-22T11:30:28.277Z,95210.25
2023-04-22T11:31:32.408Z,95215.84
2023-04-22T11:32:46.241Z,95220.38
2023-04-22T11:34:12.072Z,95221.09
2023-04-22T11:35:20.327Z,95220.19
2023-04-22T11:36:26.677Z,95188.75
2023-04-22T11:37:30.261Z,95201.84
2023-04-22T11:38:38.897Z,95203.00
2023-04-22T11:39:56.247Z,95228.75
2023-04-22T11:41:09.918Z,95234.56
2023-04-22T11:42:15.073Z,95231.81
2023-04-22T11:43:23.031Z,95231.50
2023-04-22T11:44:27.479Z,95225.94
2023-04-22T11:45:35.900Z,95199.16
2023-04-22T11:46:42.617Z,95212.34
2023-04-22T11:47:55.353Z,95210.94
2023-04-22T11:49:18.083Z,95208.91
2023-04-22T11:50:27.670Z,95208.19
2023-04-22T11:51:32.762Z,95198.19
2023-04-22T11:52:54.458Z,95192.72
2023-04-22T11:53:59.284Z,95206.72
2023-04-22T11:55:10.561Z,95193.13
2023-04-22T11:56:17.893Z,95187.91
2023-04-22T11:57:22.754Z,95166.97
2023-04-22T11:58:31.944Z,95177.44
2023-04-22T11:59:36.406Z,95180.75
2023-04-22T12:00:46.262Z,95210.34
2023-04-22T12:01:51.431Z,95209.34
2023-04-22T12:03:10.216Z,95226.38
2023-04-22T12:04:15.685Z,95210.13
2023-04-22T12:05:23.137Z,95207.25
2023-04-22T12:06:29.655Z,95215.63
2023-04-22T12:07:34.210Z,95222.16
2023-04-22T12:08:43.844Z,95213.63
2023-04-22T12:09:51.598Z,95205.78
2023-04-22T12:11:01.447Z,95197.00
2023-04-22T12:12:06.292Z,95223.84
2023-04-22T12:13:13.881Z,95218.56
2023-04-22T12:14:17.168Z,95232.78
2023-04-22T12:15:24.685Z,95226.69
2023-04-22T12:16:29.281Z,95233.50
2023-04-22T12:17:36.508Z,95221.09
2023-04-22T12:18:53.995Z,95209.53
2023-04-22T12:19:58.033Z,95219.47
2023-04-22T12:21:12.364Z,95195.91
2023-04-22T12:22:30.086Z,95209.72
2023-04-22T12:23:47.159Z,95204.38
2023-04-22T12:24:55.456Z,95184.00
2023-04-22T12:26:02.418Z,95189.28
2023-04-22T12:27:06.029Z,95197.34
2023-04-22T12:28:13.601Z,95206.34
2023-04-22T12:29:20.494Z,95199.31
2023-04-22T12:30:26.879Z,95201.41
2023-04-22T12:31:30.876Z,95203.56
2023-04-22T12:32:38.252Z,95198.25
2023-04-22T12:33:45.883Z,95219.69
2023-04-22T12:34:52.946Z,95198.25
2023-04-22T12:36:02.011Z,95201.28
2023-04-22T12:37:06.579Z,95205.44
2023-04-22T12:38:12.980Z,95204.34
2023-04-22T12:39:17.856Z,95215.44
2023-04-22T12:40:24.373Z,95227.88
2023-04-22T12:41:29.036Z,95224.38
2023-04-22T12:42:36.334Z,95221.47
2023-04-22T12:43:40.155Z,95218.97
2023-04-22T12:44:47.659Z,95217.16
2023-04-22T12:45:51.530Z,95229.63
2023-04-22T12:46:58.988Z,95223.84
2023-04-22T12:48:05.317Z,95220.09
2023-04-22T12:49:11.039Z,95232.94
2023-04-22T12:50:17.668Z,95238.28
2023-04-22T12:51:21.820Z,95240.06
2023-04-22T12:52:28.471Z,95228.56
2023-04-22T12:53:32.397Z,95248.94